createdAt,value
2023-01-10T00:00:22.875Z,37.75
2023-01-10T00:03:37.037Z,34.63
2023-01-10T00:06:49.240Z,34.78
2023-01-10T00:10:01.576Z,30.05
2023-01-10T00:13:28.902Z,34.23
2023-01-10T00:16:42.678Z,30.08
2023-01-10T00:19:54.801Z,30.63
2023-01-10T00:23:07.451Z,28.70
2023-01-10T00:26:19.754Z,29.43
2023-01-10T00:29:35.358Z,25.38
2023-01-10T00:32:49.176Z,26.38
2023-01-10T00:36:01.284Z,26.08
2023-01-10T00:39:15.313Z,26.93
2023-01-10T00:42:41.480Z,27.70
2023-01-10T00:45:54.710Z,23.10
2023-01-10T00:49:11.731Z,24.25
2023-01-10T00:52:23.763Z,23.53
2023-01-10T00:55:36.007Z,28.28
2023-01-10T00:58:48.304Z,26.88
2023-01-10T01:02:00.566Z,25.78
2023-01-10T01:05:14.913Z,26.58
2023-01-10T01:08:27.418Z,25.25
2023-01-10T01:11:39.856Z,25.98
2023-01-10T01:14:51.970Z,21.85
2023-01-10T01:18:04.459Z,21.88
2023-01-10T01:21:16.554Z,24.20
2023-01-10T01:24:28.677Z,27.48
2023-01-10T01:27:40.999Z,27.00
2023-01-10T01:30:54.009Z,23.63
2023-01-10T01:34:06.537Z,28.58
2023-01-10T01:37:19.637Z,24.68
2023-01-10T01:40:32.727Z,24.35
2023-01-10T01:44:08.472Z,21.13
2023-01-10T01:47:26.595Z,24.15
2023-01-10T01:50:44.138Z,22.68
2023-01-10T01:54:00.116Z,24.55
2023-01-10T01:57:16.861Z,22.53
2023-01-10T02:00:32.124Z,21.65
2023-01-10T02:03:46.261Z,21.85
2023-01-10T02:07:01.234Z,25.78
2023-01-10T02:10:17.742Z,25.55
2023-01-10T02:13:32.399Z,22.98
2023-01-10T02:16:44.392Z,23.70
2023-01-10T02:20:01.461Z,20.00
2023-01-10T02:23:43.142Z,22.80
2023-01-10T02:27:19.818Z,22.38
2023-01-10T02:30:56.040Z,23.43
2023-01-10T02:34:13.821Z,25.10
2023-01-10T02:37:30.516Z,26.28
2023-01-10T02:40:51.670Z,25.70
2023-01-10T02:44:09.008Z,21.98
2023-01-10T02:47:21.624Z,23.60
2023-01-10T02:50:55.568Z,27.03
2023-01-10T02:54:12.455Z,20.80
2023-01-10T02:57:43.945Z,28.63
2023-01-10T03:01:01.731Z,22.50
2023-01-10T03:04:20.930Z,21.48
2023-01-10T03:07:39.121Z,22.45
2023-01-10T03:10:55.645Z,24.95
2023-01-10T03:14:12.683Z,28.95
2023-01-10T03:17:26.911Z,24.00
2023-01-10T03:20:42.104Z,22.33
2023-01-10T03:23:57.601Z,23.23
2023-01-10T03:27:16.488Z,22.73
2023-01-10T03:30:34.957Z,24.85
2023-01-10T03:33:48.707Z,26.18
2023-01-10T03:37:07.840Z,23.80
2023-01-10T03:40:26.797Z,21.33
2023-01-10T03:44:02.139Z,23.43
2023-01-10T03:47:20.139Z,23.25
2023-01-10T03:50:34.553Z,22.95
2023-01-10T03:53:47.211Z,21.18
2023-01-10T03:57:01.279Z,19.00
2023-01-10T04:00:17.578Z,23.05
2023-01-10T04:03:30.025Z,19.40
2023-01-10T04:06:42.345Z,22.20
2023-01-10T04:09:54.677Z,25.00
2023-01-10T04:13:09.161Z,23.78
2023-01-10T04:16:21.405Z,19.40
2023-01-10T04:19:33.780Z,20.88
2023-01-10T04:22:46.119Z,18.93
2023-01-10T04:25:58.745Z,16.28
2023-01-10T04:29:11.120Z,17.63
2023-01-10T04:32:23.351Z,19.30
2023-01-10T04:35:35.596Z,16.58
2023-01-10T04:38:47.709Z,14.65
2023-01-10T04:41:59.944Z,13.53
2023-01-10T04:45:16.704Z,13.03
2023-01-10T04:48:28.943Z,15.25
2023-01-10T04:51:41.006Z,14.33
2023-01-10T04:54:53.088Z,12.25
2023-01-10T04:58:05.310Z,10.38
2023-01-10T05:01:20.950Z,11.98
2023-01-10T05:04:34.175Z,11.20
2023-01-10T05:07:46.767Z,10.90
2023-01-10T05:10:58.925Z,10.00
2023-01-10T05:14:12.610Z,10.18
2023-01-10T05:17:24.887Z,10.68
2023-01-10T05:20:36.984Z,10.13
2023-01-10T05:23:49.367Z,13.23
2023-01-10T05:27:01.481Z,10.48
2023-01-10T05:30:19.604Z,9.50
2023-01-10T05:33:31.931Z,10.25
2023-01-10T05:36:44.062Z,8.50
2023-01-10T05:39:56.186Z,6.28
2023-01-10T05:43:08.460Z,8.23
2023-01-10T05:46:20.662Z,10.20
2023-01-10T05:49:34.197Z,6.95
2023-01-10T05:52:46.557Z,7.95
2023-01-10T05:56:04.543Z,8.43
2023-01-10T05:59:27.497Z,7.70
2023-01-10T06:02:30.984Z,6.03
2023-01-10T06:05:43.386Z,8.73
2023-01-10T06:08:56.441Z,6.10
2023-01-10T06:12:08.882Z,6.43
2023-01-10T06:15:21.656Z,8.93
2023-01-10T06:18:33.981Z,11.60
2023-01-10T06:21:46.004Z,7.63
2023-01-10T06:24:58.573Z,11.50
2023-01-10T06:28:11.180Z,8.18
2023-01-10T06:31:23.432Z,7.28
2023-01-10T06:34:35.886Z,7.73
2023-01-10T06:37:48.153Z,5.70
2023-01-10T06:41:02.505Z,8.70
2023-01-10T06:44:15.138Z,8.08
2023-01-10T06:47:27.477Z,6.80
2023-01-10T06:50:39.801Z,8.53
2023-01-10T06:53:52.195Z,9.00
2023-01-10T06:57:04.869Z,6.30
2023-01-10T07:00:22.686Z,6.18
2023-01-10T07:03:34.994Z,8.40
2023-01-10T07:06:48.014Z,22.15
2023-01-10T07:10:00.321Z,12.95
2023-01-10T07:13:12.671Z,8.18
2023-01-10T07:16:25.074Z,6.50
2023-01-10T07:19:37.726Z,5.80
2023-01-10T07:22:50.263Z,6.48
2023-01-10T07:26:02.594Z,7.20
2023-01-10T07:29:15.035Z,6.05
2023-01-10T07:32:27.199Z,9.45
2023-01-10T07:35:39.519Z,6.83
2023-01-10T07:38:51.947Z,8.83
2023-01-10T07:42:04.079Z,7.18
2023-01-10T07:45:18.592Z,9.23
2023-01-10T07:48:31.759Z,48.88
2023-01-10T07:51:43.916Z,45.65
2023-01-10T07:54:56.011Z,7.38
2023-01-10T07:58:08.207Z,5.75
2023-01-10T08:01:20.511Z,5.45
2023-01-10T08:04:32.979Z,8.83
2023-01-10T08:07:44.941Z,4.93
2023-01-10T08:10:57.107Z,6.00
2023-01-10T08:14:09.359Z,6.65
2023-01-10T08:17:21.723Z,6.08
2023-01-10T08:20:34.435Z,8.03
2023-01-10T08:23:46.696Z,7.18
2023-01-10T08:26:59.258Z,7.33
2023-01-10T08:30:13.663Z,6.93
2023-01-10T08:33:27.435Z,5.10
2023-01-10T08:36:39.677Z,7.63
2023-01-10T08:39:51.850Z,6.18
2023-01-10T08:43:09.528Z,4.85
2023-01-10T08:46:21.939Z,9.55
2023-01-10T08:49:34.290Z,7.63
2023-01-10T08:52:46.541Z,8.30
2023-01-10T08:55:58.693Z,10.15
2023-01-10T08:59:11.257Z,13.10
2023-01-10T09:02:23.486Z,9.45
2023-01-10T09:05:35.834Z,6.68
2023-01-10T09:08:48.039Z,9.20
2023-01-10T09:12:00.186Z,8.80
2023-01-10T09:15:15.053Z,8.03
2023-01-10T09:18:27.458Z,7.33
2023-01-10T09:21:39.842Z,7.18
2023-01-10T09:28:18.923Z,6.08
2023-01-10T09:31:31.151Z,7.50
2023-01-10T09:34:43.504Z,7.08
2023-01-10T09:37:57.762Z,6.83
2023-01-10T09:41:31.681Z,7.05
2023-01-10T09:44:53.954Z,7.13
2023-01-10T09:48:12.413Z,7.40
2023-01-10T09:51:39.436Z,9.93
2023-01-10T09:54:54.515Z,10.45
2023-01-10T09:58:11.438Z,10.65
2023-01-10T10:01:27.735Z,8.88
2023-01-10T10:04:42.618Z,11.38
2023-01-10T10:08:02.387Z,11.38
2023-01-10T10:11:59.648Z,11.98
2023-01-10T10:15:23.507Z,15.43
2023-01-10T10:18:44.180Z,20.68
2023-01-10T10:22:01.915Z,11.38
2023-01-10T10:25:23.297Z,14.75
2023-01-10T10:29:15.546Z,18.73
2023-01-10T10:32:51.117Z,11.50
2023-01-10T10:36:08.510Z,10.38
2023-01-10T10:39:25.669Z,11.63
2023-01-10T10:45:57.509Z,9.65
2023-01-10T10:49:18.717Z,9.58
2023-01-10T10:52:35.336Z,11.65
2023-01-10T10:55:48.088Z,10.25
2023-01-10T10:59:03.426Z,13.63
2023-01-10T11:02:32.522Z,10.23
2023-01-10T11:05:48.070Z,11.63
2023-01-10T11:09:04.838Z,12.28
2023-01-10T11:12:23.080Z,9.65
2023-01-10T11:15:55.931Z,10.48
2023-01-10T11:19:23.345Z,7.23
2023-01-10T11:22:42.292Z,11.28
2023-01-10T11:25:56.193Z,6.90
2023-01-10T11:29:20.386Z,7.70
2023-01-10T11:32:42.266Z,9.48
2023-01-10T11:36:08.593Z,6.63
2023-01-10T11:39:25.135Z,4.95
2023-01-10T11:42:38.261Z,4.55
2023-01-10T11:45:51.101Z,6.48
2023-01-10T11:49:10.945Z,5.05
2023-01-10T11:52:29.663Z,4.70
2023-01-10T11:55:44.173Z,4.20
2023-01-10T11:58:56.475Z,5.13
2023-01-10T12:02:16.483Z,5.60
2023-01-10T12:05:30.395Z,3.85
2023-01-10T12:08:45.094Z,4.70
2023-01-10T12:12:07.247Z,5.38
2023-01-10T12:15:34.488Z,4.63
2023-01-10T12:18:46.924Z,4.28
2023-01-10T12:21:59.331Z,4.70
2023-01-10T12:25:21.304Z,3.63
2023-01-10T12:28:35.937Z,4.80
2023-01-10T12:31:48.354Z,5.18
2023-01-10T12:35:04.583Z,4.43
2023-01-10T12:38:28.004Z,4.60
2023-01-10T12:42:01.347Z,4.78
2023-01-10T12:45:19.672Z,4.45
2023-01-10T12:48:38.239Z,6.65
2023-01-10T12:51:54.140Z,4.50
2023-01-10T12:55:07.456Z,5.68
2023-01-10T12:58:26.208Z,6.08
2023-01-10T13:01:43.270Z,5.20
2023-01-10T13:05:00.407Z,8.65
2023-01-10T13:08:16.693Z,8.68
2023-01-10T13:11:32.722Z,4.93
2023-01-10T13:14:51.219Z,5.30
2023-01-10T13:18:09.539Z,5.30
2023-01-10T13:21:23.729Z,6.60
2023-01-10T13:24:36.406Z,5.93
2023-01-10T13:27:48.685Z,5.05
2023-01-10T13:31:04.239Z,7.30
2023-01-10T13:34:22.418Z,10.23
2023-01-10T13:37:40.062Z,7.35
2023-01-10T13:41:08.557Z,9.18
2023-01-10T13:44:21.588Z,6.68
2023-01-10T13:48:07.609Z,8.35
2023-01-10T13:51:25.643Z,6.30
2023-01-10T13:54:37.902Z,11.23
2023-01-10T13:58:01.925Z,9.68
2023-01-10T14:01:46.543Z,9.08
2023-01-10T14:05:03.030Z,9.20
2023-01-10T14:08:24.599Z,9.43
2023-01-10T14:11:42.834Z,8.33
2023-01-10T14:15:03.811Z,11.23
2023-01-10T14:18:26.950Z,13.25
2023-01-10T14:21:45.682Z,14.25
2023-01-10T14:25:00.687Z,13.88
2023-01-10T14:28:29.691Z,10.58
2023-01-10T14:31:47.156Z,11.18
2023-01-10T14:35:00.274Z,10.93
2023-01-10T14:38:17.819Z,11.40
2023-01-10T14:41:35.925Z,13.70
2023-01-10T14:44:53.650Z,11.50
2023-01-10T14:48:05.904Z,11.90
2023-01-10T14:51:32.516Z,12.93
2023-01-10T14:54:44.874Z,15.43
2023-01-10T14:58:05.483Z,11.33
2023-01-10T15:01:19.476Z,14.48
2023-01-10T15:04:36.741Z,13.63
2023-01-10T15:07:49.068Z,12.30
2023-01-10T15:11:06.849Z,11.23
2023-01-10T15:14:26.399Z,10.75
2023-01-10T15:17:40.622Z,12.70
2023-01-10T15:20:53.478Z,12.35
2023-01-10T15:24:05.912Z,13.13
2023-01-10T15:27:22.372Z,14.25
2023-01-10T15:30:39.226Z,13.15
2023-01-10T15:33:56.760Z,16.50
2023-01-10T15:37:10.559Z,15.58
2023-01-10T15:40:33.509Z,20.05
2023-01-10T15:43:45.772Z,18.35
2023-01-10T15:47:04.595Z,18.13
2023-01-10T15:50:33.217Z,20.70
2023-01-10T15:54:10.454Z,19.13
2023-01-10T15:57:36.171Z,19.00
2023-01-10T16:00:57.065Z,19.25
2023-01-10T16:04:17.155Z,19.93
2023-01-10T16:07:34.738Z,19.75
2023-01-10T16:10:46.973Z,21.38
2023-01-10T16:13:59.181Z,20.75
2023-01-10T16:17:12.675Z,28.33
2023-01-10T16:20:30.412Z,23.65
2023-01-10T16:23:44.106Z,25.13
2023-01-10T16:27:03.161Z,22.00
2023-01-10T16:30:28.370Z,27.58
2023-01-10T16:33:41.324Z,25.85
2023-01-10T16:36:54.236Z,29.53
2023-01-10T16:40:06.449Z,27.03
2023-01-10T16:43:22.194Z,31.35
2023-01-10T16:46:34.714Z,27.58
2023-01-10T16:49:47.009Z,26.78
2023-01-10T16:52:59.707Z,32.25
2023-01-10T16:56:13.581Z,29.68
2023-01-10T16:59:25.978Z,27.33
2023-01-10T17:02:39.058Z,27.43
2023-01-10T17:05:52.221Z,29.25
2023-01-10T17:09:04.545Z,27.15
2023-01-10T17:12:21.890Z,22.85
2023-01-10T17:15:36.413Z,24.75
2023-01-10T17:18:48.921Z,25.80
2023-01-10T17:22:01.236Z,24.38
2023-01-10T17:25:19.054Z,22.35
2023-01-10T17:28:31.654Z,19.83
2023-01-10T17:31:43.933Z,18.50
2023-01-10T17:34:56.241Z,21.03
2023-01-10T17:38:08.586Z,21.68
2023-01-10T17:41:20.915Z,21.98
2023-01-10T17:44:33.218Z,23.20
2023-01-10T17:47:45.607Z,19.55
2023-01-10T17:51:04.348Z,20.45
2023-01-10T17:54:16.605Z,19.43
2023-01-10T17:57:29.010Z,20.70
2023-01-10T18:00:41.314Z,21.18
2023-01-10T18:03:54.561Z,20.68
2023-01-10T18:07:07.144Z,20.00
2023-01-10T18:10:19.889Z,18.80
2023-01-10T18:13:34.464Z,18.58
2023-01-10T18:16:46.729Z,19.03
2023-01-10T18:19:59.224Z,20.98
2023-01-10T18:23:27.027Z,19.73
2023-01-10T18:26:39.468Z,17.78
2023-01-10T18:29:51.839Z,17.98
2023-01-10T18:33:06.198Z,18.65
2023-01-10T18:36:22.227Z,20.93
2023-01-10T18:39:35.067Z,19.23
2023-01-10T18:42:49.682Z,22.00
2023-01-10T18:46:10.713Z,20.15
2023-01-10T18:49:23.095Z,21.80
2023-01-10T18:52:35.338Z,25.10
2023-01-10T18:55:47.739Z,22.35
2023-01-10T18:59:00.109Z,22.38
2023-01-10T19:02:12.647Z,22.65
2023-01-10T19:05:25.355Z,27.28
2023-01-10T19:08:38.289Z,24.23
2023-01-10T19:11:50.575Z,27.68
2023-01-10T19:15:02.788Z,30.30
2023-01-10T19:18:15.295Z,33.35
2023-01-10T19:21:30.336Z,39.73
2023-01-10T19:24:43.225Z,34.48
2023-01-10T19:27:55.457Z,33.35
2023-01-10T19:31:08.067Z,43.28
2023-01-10T19:34:20.688Z,35.08
2023-01-10T19:37:33.058Z,38.10
2023-01-10T19:40:45.837Z,36.58
2023-01-10T19:44:04.198Z,35.65
2023-01-10T19:47:16.553Z,35.30
2023-01-10T19:50:28.948Z,33.98
2023-01-10T19:53:46.514Z,39.45
2023-01-10T19:56:59.104Z,40.25
2023-01-10T20:00:13.749Z,38.28
2023-01-10T20:03:26.075Z,38.00
2023-01-10T20:06:42.893Z,37.53
2023-01-10T20:09:55.620Z,36.50
2023-01-10T20:13:10.173Z,37.15
2023-01-10T20:16:26.544Z,39.55
2023-01-10T20:19:40.684Z,36.80
2023-01-10T20:22:53.630Z,37.25
2023-01-10T20:26:09.845Z,35.58
2023-01-10T20:29:23.740Z,41.55
2023-01-10T20:32:36.740Z,43.55
2023-01-10T20:35:49.743Z,41.30
2023-01-10T20:39:03.234Z,45.60
2023-01-10T20:42:15.822Z,40.88
2023-01-10T20:45:28.154Z,41.33
2023-01-10T20:48:41.744Z,41.70
2023-01-10T20:51:54.441Z,43.70
2023-01-10T20:55:06.885Z,42.78
2023-01-10T20:58:19.088Z,41.85
2023-01-10T21:01:34.865Z,38.95
2023-01-10T21:04:49.693Z,44.65
2023-01-10T21:08:01.696Z,44.23
2023-01-10T21:11:17.126Z,40.33
2023-01-10T21:14:29.836Z,39.98
2023-01-10T21:17:43.284Z,40.78
2023-01-10T21:20:59.920Z,39.83
2023-01-10T21:24:15.921Z,42.93
2023-01-10T21:27:30.633Z,47.00
2023-01-10T21:30:43.224Z,40.55
2023-01-10T21:33:56.087Z,41.80
2023-01-10T21:37:08.608Z,39.65
2023-01-10T21:40:21.274Z,43.03
2023-01-10T21:43:33.773Z,40.88
2023-01-10T21:46:48.207Z,45.55
2023-01-10T21:50:00.719Z,43.83
2023-01-10T21:53:14.700Z,40.08
2023-01-10T21:56:27.085Z,46.43
2023-01-10T21:59:41.840Z,39.53
2023-01-10T22:02:54.281Z,44.50
2023-01-10T22:06:08.856Z,47.75
2023-01-10T22:09:21.438Z,42.80
2023-01-10T22:12:36.714Z,39.25
2023-01-10T22:15:49.410Z,40.83
2023-01-10T22:19:02.050Z,37.58
2023-01-10T22:22:15.125Z,39.98
2023-01-10T22:25:27.566Z,38.33
2023-01-10T22:28:40.245Z,34.65
2023-01-10T22:31:52.714Z,34.73
2023-01-10T22:35:05.286Z,41.70
2023-01-10T22:38:17.550Z,39.05
2023-01-10T22:41:31.098Z,38.93
2023-01-10T22:44:43.369Z,40.43
2023-01-10T22:47:57.458Z,37.93
2023-01-10T22:51:10.723Z,44.98
2023-01-10T22:54:23.060Z,47.88
2023-01-10T22:57:42.755Z,42.63
2023-01-10T23:00:51.615Z,43.43
2023-01-10T23:04:03.856Z,38.30
2023-01-10T23:07:16.198Z,36.85
2023-01-10T23:10:30.783Z,42.15
2023-01-10T23:13:43.113Z,42.68
2023-01-10T23:16:55.723Z,41.90
2023-01-10T23:20:08.659Z,39.70
2023-01-10T23:23:20.997Z,38.03
2023-01-10T23:26:33.381Z,42.68
2023-01-10T23:29:45.632Z,40.68
2023-01-10T23:32:57.789Z,36.65
2023-01-10T23:36:11.461Z,36.23
2023-01-10T23:39:23.695Z,41.28
2023-01-10T23:45:42.207Z,42.78
2023-01-10T23:48:56.152Z,44.08
2023-01-10T23:52:08.660Z,44.98
2023-01-10T23:55:21.005Z,43.20
2023-01-10T23:58:33.190Z,49.45
